Eva-320 — ES2338 — position and weather

sailwx.info

Track history (hours):
 
Tides and Currents Weather Stations Pressure Air Temp Water Temp Dewpoint Dewpoint Depression Visibility Wind Speed Wind Dir Waves Ship Positions

Eva-320

Last reported at 2018-Apr-27 04:59 UTC. Time now 2018-Apr-27 05:02 UTC.
Position N 59°28' E 024°43'.

Length 20 m; draft 1 m.

Type: Ship. MMSI: 276197000.

Date/timePositionNaut miles runAvg speedWind from/ knotsBaromVisibWave heightAir tempDewpointWater temp
2018-Apr-27 04:59N 59°28' E 024°43'0 0.0
2018-Apr-27 04:29N 59°28' E 024°43'0 0.0
2018-Apr-27 03:59N 59°28' E 024°43'0 0.0
2018-Apr-27 03:29N 59°28' E 024°43'0 0.0
2018-Apr-27 02:59N 59°28' E 024°43'0 0.0
2018-Apr-27 02:29N 59°28' E 024°43'0 0.0
2018-Apr-27 01:59N 59°28' E 024°43'0 0.0
2018-Apr-27 01:29N 59°28' E 024°43'0 0.0
2018-Apr-27 00:59N 59°28' E 024°43'0 0.0
2018-Apr-27 00:29N 59°28' E 024°43'0 0.0
2018-Apr-26 23:59N 59°28' E 024°43'0 0.0
2018-Apr-26 23:29N 59°28' E 024°43'0 0.0
2018-Apr-26 22:59N 59°28' E 024°43'0 0.0
2018-Apr-26 22:29N 59°28' E 024°43'0 0.0
2018-Apr-26 21:59N 59°28' E 024°43'0 0.0
2018-Apr-26 21:29N 59°28' E 024°43'0 0.0
2018-Apr-26 20:59N 59°28' E 024°43'0 0.0
2018-Apr-26 20:29N 59°28' E 024°43'0 0.0
2018-Apr-26 19:56N 59°28' E 024°43'0 0.0
2018-Apr-26 19:29N 59°28' E 024°43'0 0.0
2018-Apr-26 18:59N 59°28' E 024°43'0 0.0
2018-Apr-26 18:29N 59°28' E 024°43'0 0.0
2018-Apr-26 17:59N 59°28' E 024°43'0 0.0
2018-Apr-26 17:29N 59°28' E 024°43'0 0.0
2018-Apr-26 16:59N 59°28' E 024°43'0 0.0
2018-Apr-26 16:29N 59°28' E 024°43'0 0.0
2018-Apr-26 15:59N 59°28' E 024°43'0 0.0
2018-Apr-26 15:29N 59°28' E 024°43'0 0.0
2018-Apr-26 14:59N 59°28' E 024°43'0 0.0
2018-Apr-26 14:29N 59°28' E 024°43'0 0.0
2018-Apr-26 13:59N 59°28' E 024°43'0 0.1
2018-Apr-26 13:30N 59°28' E 024°43'2 4.4
2018-Apr-26 13:01N 59°30' E 024°43'5 9.2
2018-Apr-26 12:30N 59°30' E 024°34'3 5.7
2018-Apr-26 12:01N 59°31' E 024°28'2 3.3
2018-Apr-26 11:30N 59°30' E 024°31'3 5.7
2018-Apr-26 11:00N 59°29' E 024°26'4 6.7
2018-Apr-26 10:25N 59°29' E 024°18'1 2.2
2018-Apr-26 10:01N 59°29' E 024°20'1 1.2
2018-Apr-26 09:20N 59°29' E 024°18'2 4.8
2018-Apr-26 09:00N 59°29' E 024°21'4 7.4
2018-Apr-26 08:31N 59°29' E 024°28'4 7.4
2018-Apr-26 08:00N 59°30' E 024°36'4 7.3
2018-Apr-26 07:30N 59°30' E 024°43'2 4.5
2018-Apr-26 07:00N 59°28' E 024°43'0 0.0
2018-Apr-26 06:29N 59°28' E 024°43'0 0.0
2018-Apr-26 05:59N 59°28' E 024°43'0 0.0
2018-Apr-26 05:29N 59°28' E 024°43'0 0.0
2018-Apr-26 04:59N 59°28' E 024°43'0 0.0
2018-Apr-26 04:29N 59°28' E 024°43'0 0.0
2018-Apr-26 03:59N 59°28' E 024°43'0 0.0
2018-Apr-26 03:29N 59°28' E 024°43'0 0.0
2018-Apr-26 02:59N 59°28' E 024°43'0 0.0
2018-Apr-26 02:29N 59°28' E 024°43'0 0.0
2018-Apr-26 01:59N 59°28' E 024°43'0 0.0
2018-Apr-26 01:29N 59°28' E 024°43'0 0.0
2018-Apr-26 00:56N 59°28' E 024°43'0 0.0
2018-Apr-26 00:29N 59°28' E 024°43'0 0.0
2018-Apr-25 23:59N 59°28' E 024°43'0 0.0
2018-Apr-25 23:29N 59°28' E 024°43'0 0.0
2018-Apr-25 22:59N 59°28' E 024°43'0 0.0
2018-Apr-25 22:29N 59°28' E 024°43'0 0.0
2018-Apr-25 21:59N 59°28' E 024°43'0 0.0
2018-Apr-25 21:29N 59°28' E 024°43'0 0.0
2018-Apr-25 20:59N 59°28' E 024°43'0 0.0
2018-Apr-25 20:29N 59°28' E 024°43'0 0.0
2018-Apr-25 19:59N 59°28' E 024°43'0 0.0
2018-Apr-25 19:29N 59°28' E 024°43'0 0.0
2018-Apr-25 18:59N 59°28' E 024°43'0 0.0
2018-Apr-25 18:26N 59°28' E 024°43'0 0.0
2018-Apr-25 17:56N 59°28' E 024°43'0 0.0
2018-Apr-25 17:29N 59°28' E 024°43'0 0.0
2018-Apr-25 16:59N 59°28' E 024°43'0 0.0
2018-Apr-25 16:29N 59°28' E 024°43'0 0.0
2018-Apr-25 15:56N 59°28' E 024°43'0 0.0
2018-Apr-25 15:29N 59°28' E 024°43'0 0.0
2018-Apr-25 14:59N 59°28' E 024°43'0 0.0
2018-Apr-25 14:29N 59°28' E 024°43'0 0.0
2018-Apr-25 13:59N 59°28' E 024°43'0 0.0
2018-Apr-25 13:29N 59°28' E 024°43'0 0.0
2018-Apr-25 12:59N 59°28' E 024°43'0 0.0
2018-Apr-25 12:29N 59°28' E 024°43'0 0.0
2018-Apr-25 11:59N 59°28' E 024°43'0 0.0
2018-Apr-25 11:29N 59°28' E 024°43'0 0.0
2018-Apr-25 10:59N 59°28' E 024°43'2 3.7
2018-Apr-25 10:31N 59°29' E 024°43'2 3.8
2018-Apr-25 10:01N 59°30' E 024°40'0 0.6
2018-Apr-25 09:31N 59°30' E 024°39'3 5.2
2018-Apr-25 09:00N 59°29' E 024°44'0 0.6
2018-Apr-25 08:31N 59°29' E 024°45'2 3.3
2018-Apr-25 08:01N 59°28' E 024°44'0 0.7
2018-Apr-25 07:29N 59°28' E 024°43'0 0.0
2018-Apr-25 06:59N 59°28' E 024°43'0 0.0
2018-Apr-25 06:29N 59°28' E 024°43'0 0.0
2018-Apr-25 05:59N 59°28' E 024°43'0 0.0
2018-Apr-25 05:29N 59°28' E 024°43'0 0.0
2018-Apr-25 04:59N 59°28' E 024°43'0 0.0
2018-Apr-25 04:29N 59°28' E 024°43'0 0.0
2018-Apr-25 03:59N 59°28' E 024°43'0 0.0
2018-Apr-25 03:29N 59°28' E 024°43'0 0.0
2018-Apr-25 02:59N 59°28' E 024°43'0 0.0
2018-Apr-25 02:29N 59°28' E 024°43'0 0.0
2018-Apr-25 01:59N 59°28' E 024°43'0 0.0
2018-Apr-25 01:29N 59°28' E 024°43'0 0.0
2018-Apr-25 00:59N 59°28' E 024°43'0 0.0
2018-Apr-25 00:29N 59°28' E 024°43'0 0.0
2018-Apr-24 23:59N 59°28' E 024°43'0 0.0
2018-Apr-24 23:29N 59°28' E 024°43'0 0.0
2018-Apr-24 22:56N 59°28' E 024°43'0 0.0
2018-Apr-24 22:29N 59°28' E 024°43'0 0.0
2018-Apr-24 21:59N 59°28' E 024°43'0 0.0
2018-Apr-24 21:29N 59°28' E 024°43'0 0.0
2018-Apr-24 20:59N 59°28' E 024°43'0 0.0
2018-Apr-24 20:29N 59°28' E 024°43'0 0.0
2018-Apr-24 19:59N 59°28' E 024°43'0 0.0
2018-Apr-24 19:29N 59°28' E 024°43'0 0.0
2018-Apr-24 18:59N 59°28' E 024°43'0 0.0
2018-Apr-24 18:29N 59°28' E 024°43'0 0.0
2018-Apr-24 17:59N 59°28' E 024°43'0 0.0
2018-Apr-24 17:26N 59°28' E 024°43'0 0.0
2018-Apr-24 16:59N 59°28' E 024°43'0 0.0
2018-Apr-24 16:29N 59°28' E 024°43'0 0.0
2018-Apr-24 15:59N 59°28' E 024°43'0 0.0
2018-Apr-24 15:26N 59°28' E 024°43'0 0.0
2018-Apr-24 14:59N 59°28' E 024°43'0 0.0
2018-Apr-24 14:26N 59°28' E 024°43'0 0.0
2018-Apr-24 14:00N 59°28' E 024°43'3 5.4
2018-Apr-24 13:30N 59°30' E 024°42'3 6.9
2018-Apr-24 13:00N 59°30' E 024°36'0 0.2
2018-Apr-24 12:30N 59°30' E 024°35'0 0.3
2018-Apr-24 12:01N 59°30' E 024°36'1 2.3
2018-Apr-24 11:31N 59°30' E 024°38'0 0.5
2018-Apr-24 11:00N 59°30' E 024°38'1 1.7
2018-Apr-24 10:30N 59°29' E 024°37'3 6.1
2018-Apr-24 10:01N 59°30' E 024°43'2 4.7
2018-Apr-24 09:30N 59°28' E 024°43'0 0.0
2018-Apr-24 09:00N 59°28' E 024°43'0 0.0
2018-Apr-24 08:30N 59°28' E 024°43'0 0.0
2018-Apr-24 08:00N 59°28' E 024°43'0 0.0
2018-Apr-24 07:30N 59°28' E 024°43'0 0.0
2018-Apr-24 07:00N 59°28' E 024°43'0 0.0
2018-Apr-24 06:30N 59°28' E 024°43'0 0.0
2018-Apr-24 06:00N 59°28' E 024°43'0 0.0
2018-Apr-24 05:30N 59°28' E 024°43'0 0.0
2018-Apr-24 05:00N 59°28' E 024°43'0 0.0
2018-Apr-24 04:30N 59°28' E 024°43'0 0.0
2018-Apr-24 04:00N 59°28' E 024°43'0 0.0
2018-Apr-24 03:30N 59°28' E 024°43'0 0.0
2018-Apr-24 03:00N 59°28' E 024°43'0 0.0
2018-Apr-24 02:30N 59°28' E 024°43'0 0.0
2018-Apr-24 02:00N 59°28' E 024°43'0 0.0
2018-Apr-24 01:30N 59°28' E 024°43'0 0.0
2018-Apr-24 01:00N 59°28' E 024°43'0 0.0
2018-Apr-24 00:30N 59°28' E 024°43'0 0.0
2018-Apr-24 00:00N 59°28' E 024°43'0 0.0
2018-Apr-23 23:30N 59°28' E 024°43'0 0.0
2018-Apr-23 23:00N 59°28' E 024°43'0 0.0
2018-Apr-23 22:30N 59°28' E 024°43'0 0.0
2018-Apr-23 22:00N 59°28' E 024°43'0 0.0
2018-Apr-23 21:30N 59°28' E 024°43'0 0.0
2018-Apr-23 21:00N 59°28' E 024°43'0 0.0
2018-Apr-23 20:30N 59°28' E 024°43'0 0.0
2018-Apr-23 20:00N 59°28' E 024°43'0 0.0
2018-Apr-23 19:30N 59°28' E 024°43'0 0.0
2018-Apr-23 19:00N 59°28' E 024°43'0 0.0
2018-Apr-23 18:30N 59°28' E 024°43'0 0.0
2018-Apr-23 18:00N 59°28' E 024°43'0 0.0
2018-Apr-23 17:30N 59°28' E 024°43'0 0.0
2018-Apr-23 17:00N 59°28' E 024°43'0 0.0
2018-Apr-23 16:30N 59°28' E 024°43'0 0.0
2018-Apr-23 16:00N 59°28' E 024°43'0 0.0
2018-Apr-23 15:30N 59°28' E 024°43'0 0.0
2018-Apr-23 15:00N 59°28' E 024°43'0 0.0
2018-Apr-23 14:30N 59°28' E 024°43'0 0.0
2018-Apr-23 14:00N 59°28' E 024°43'0 0.0
2018-Apr-23 13:30N 59°28' E 024°43'0 0.0
2018-Apr-23 13:00N 59°28' E 024°43'0 0.0
2018-Apr-23 12:30N 59°28' E 024°43'0 0.0
2018-Apr-23 12:00N 59°28' E 024°43'0 0.0
2018-Apr-23 11:30N 59°28' E 024°43'0 0.0
2018-Apr-23 11:00N 59°28' E 024°43'0 0.0
2018-Apr-23 10:30N 59°28' E 024°43'0 0.0
2018-Apr-23 10:00N 59°28' E 024°43'0 0.0
2018-Apr-23 09:30N 59°28' E 024°43'0 0.0
2018-Apr-23 09:00N 59°28' E 024°43'0 0.0
2018-Apr-23 08:30N 59°28' E 024°43'0 0.0
2018-Apr-23 08:00N 59°28' E 024°43'0 0.0
2018-Apr-23 07:30N 59°28' E 024°43'0 0.0
2018-Apr-23 07:00N 59°28' E 024°43'0 0.0
2018-Apr-23 06:30N 59°28' E 024°43'0 0.0
2018-Apr-23 06:00N 59°28' E 024°43'0 0.0
2018-Apr-23 05:30N 59°28' E 024°43'0 0.0
2018-Apr-23 05:00N 59°28' E 024°43'0 0.0
2018-Apr-23 04:30N 59°28' E 024°43'0 0.0
2018-Apr-23 04:00N 59°28' E 024°43'0 0.0
2018-Apr-23 03:30N 59°28' E 024°43'0 0.0
2018-Apr-23 03:00N 59°28' E 024°43'0 0.0
2018-Apr-23 02:30N 59°28' E 024°43'0 0.0
2018-Apr-23 02:00N 59°28' E 024°43'0 0.0
2018-Apr-23 01:30N 59°28' E 024°43'0 0.0
2018-Apr-23 01:00N 59°28' E 024°43'0 0.0
2018-Apr-23 00:30N 59°28' E 024°43'0 0.0
2018-Apr-23 00:00N 59°28' E 024°43'0 0.0
2018-Apr-22 23:30N 59°28' E 024°43'0 0.0
2018-Apr-22 23:00N 59°28' E 024°43'0 0.0
2018-Apr-22 22:30N 59°28' E 024°43'0 0.0
2018-Apr-22 22:00N 59°28' E 024°43'0 0.0
2018-Apr-22 21:30N 59°28' E 024°43'0 0.0
2018-Apr-22 21:00N 59°28' E 024°43'0 0.0
2018-Apr-22 20:30N 59°28' E 024°43'0 0.0
2018-Apr-22 20:00N 59°28' E 024°43'0 0.0
2018-Apr-22 19:30N 59°28' E 024°43'0 0.0
2018-Apr-22 19:00N 59°28' E 024°43'0 0.0
2018-Apr-22 18:30N 59°28' E 024°43'0 0.0
2018-Apr-22 18:00N 59°28' E 024°43'0 0.0
2018-Apr-22 17:30N 59°28' E 024°43'0 0.0
2018-Apr-22 17:00N 59°28' E 024°43'0 0.0
2018-Apr-22 16:30N 59°28' E 024°43'0 0.0
2018-Apr-22 16:00N 59°28' E 024°43'0 0.0
2018-Apr-22 15:30N 59°28' E 024°43'0 0.0
2018-Apr-22 15:00N 59°28' E 024°43'0 0.0
2018-Apr-22 14:30N 59°28' E 024°43'0 0.0
2018-Apr-22 14:00N 59°28' E 024°43'0 0.0
2018-Apr-22 13:30N 59°28' E 024°43'0 0.0
2018-Apr-22 13:00N 59°28' E 024°43'0 0.0
2018-Apr-22 12:30N 59°28' E 024°43'0 0.0
2018-Apr-22 11:54N 59°28' E 024°43'0 0.0
2018-Apr-22 11:30N 59°28' E 024°43'0 0.0
2018-Apr-22 11:00N 59°28' E 024°43'0 0.0
2018-Apr-22 10:30N 59°28' E 024°43'0 0.0
2018-Apr-22 10:00N 59°28' E 024°43'0 0.0
2018-Apr-22 09:30N 59°28' E 024°43'0 0.0
2018-Apr-22 09:00N 59°28' E 024°43'0 0.0
2018-Apr-22 08:30N 59°28' E 024°43'0 0.0
2018-Apr-22 08:00N 59°28' E 024°43'0 0.0
2018-Apr-22 07:30N 59°28' E 024°43'0 0.0
2018-Apr-22 07:00N 59°28' E 024°43'0 0.0
2018-Apr-22 06:30N 59°28' E 024°43'0 0.0
2018-Apr-22 06:00N 59°28' E 024°43'0 0.0
2018-Apr-22 05:30N 59°28' E 024°43'0 0.0
2018-Apr-22 04:57N 59°28' E 024°43'0 0.0
2018-Apr-22 04:29N 59°28' E 024°43'0 0.0
2018-Apr-22 04:00N 59°28' E 024°43'0 0.0
2018-Apr-22 03:30N 59°28' E 024°43'0 0.0
2018-Apr-22 03:00N 59°28' E 024°43'0 0.0
2018-Apr-22 02:30N 59°28' E 024°43'0 0.0
2018-Apr-22 02:00N 59°28' E 024°43'0 0.0
2018-Apr-22 01:30N 59°28' E 024°43'0 0.0
2018-Apr-22 01:00N 59°28' E 024°43'0 0.0
2018-Apr-22 00:30N 59°28' E 024°43'0 0.0
2018-Apr-22 00:00N 59°28' E 024°43'0 0.0
2018-Apr-21 23:30N 59°28' E 024°43'0 0.0
2018-Apr-21 23:00N 59°28' E 024°43'0 0.0
2018-Apr-21 22:27N 59°28' E 024°43'0 0.0
2018-Apr-21 22:00N 59°28' E 024°43'0 0.0
2018-Apr-21 21:30N 59°28' E 024°43'0 0.0
2018-Apr-21 21:00N 59°28' E 024°43'0 0.0
2018-Apr-21 20:30N 59°28' E 024°43'0 0.0
2018-Apr-21 20:00N 59°28' E 024°43'0 0.0
2018-Apr-21 19:30N 59°28' E 024°43'0 0.0
2018-Apr-21 19:00N 59°28' E 024°43'0 0.0
2018-Apr-21 18:30N 59°28' E 024°43'0 0.0
2018-Apr-21 18:00N 59°28' E 024°43'0 0.0
2018-Apr-21 17:30N 59°28' E 024°43'0 0.0
2018-Apr-21 17:00N 59°28' E 024°43'0 0.0
2018-Apr-21 16:30N 59°28' E 024°43'0 0.0
2018-Apr-21 16:00N 59°28' E 024°43'0 0.0
2018-Apr-21 15:30N 59°28' E 024°43'0 0.0
2018-Apr-21 14:57N 59°28' E 024°43'0 0.0
2018-Apr-21 14:30N 59°28' E 024°43'0 0.0
2018-Apr-21 14:00N 59°28' E 024°43'0 0.0
2018-Apr-21 13:30N 59°28' E 024°43'0 0.0
2018-Apr-21 13:00N 59°28' E 024°43'0 0.0
2018-Apr-21 12:30N 59°28' E 024°43'0 0.0
2018-Apr-21 12:00N 59°28' E 024°43'0 0.0
2018-Apr-21 11:30N 59°28' E 024°43'0 0.0
2018-Apr-21 11:00N 59°28' E 024°43'0 0.0
2018-Apr-21 10:30N 59°28' E 024°43'0 0.0
2018-Apr-21 10:00N 59°28' E 024°43'0 0.0
2018-Apr-21 09:30N 59°28' E 024°43'0 0.0
2018-Apr-21 09:00N 59°28' E 024°43'0 0.0
2018-Apr-21 08:30N 59°28' E 024°43'0 0.0
2018-Apr-21 08:00N 59°28' E 024°43'0 0.0
2018-Apr-21 07:30N 59°28' E 024°43'0 0.0
2018-Apr-21 07:00N 59°28' E 024°43'0 0.0
2018-Apr-21 06:30N 59°28' E 024°43'0 0.0
2018-Apr-21 06:00N 59°28' E 024°43'0 0.0
2018-Apr-21 05:30N 59°28' E 024°43'0 0.0
2018-Apr-21 05:00N 59°28' E 024°43'0 0.0
2018-Apr-21 04:30N 59°28' E 024°43'0 0.0
2018-Apr-21 04:00N 59°28' E 024°43'0 0.0
2018-Apr-21 03:30N 59°28' E 024°43'0 0.0
2018-Apr-21 03:00N 59°28' E 024°43'0 0.0
2018-Apr-21 02:30N 59°28' E 024°43'0 0.0
2018-Apr-21 02:00N 59°28' E 024°43'0 0.0
2018-Apr-21 01:30N 59°28' E 024°43'0 0.0
2018-Apr-21 01:00N 59°28' E 024°43'0 0.0
2018-Apr-21 00:30N 59°28' E 024°43'0 0.0
2018-Apr-21 00:00N 59°28' E 024°43'0 0.0
2018-Apr-20 23:30N 59°28' E 024°43'0 0.0
2018-Apr-20 23:00N 59°28' E 024°43'0 0.0
2018-Apr-20 22:30N 59°28' E 024°43'0 0.0
2018-Apr-20 22:00N 59°28' E 024°43'0 0.0
2018-Apr-20 21:30N 59°28' E 024°43'0 0.0
2018-Apr-20 21:00N 59°28' E 024°43'0 0.0
2018-Apr-20 20:30N 59°28' E 024°43'0 0.0
2018-Apr-20 20:00N 59°28' E 024°43'0 0.0
2018-Apr-20 19:30N 59°28' E 024°43'0 0.0
2018-Apr-20 19:00N 59°28' E 024°43'0 0.0
2018-Apr-20 18:30N 59°28' E 024°43'0 0.0
2018-Apr-20 17:57N 59°28' E 024°43'0 0.0
2018-Apr-20 17:30N 59°28' E 024°43'0 0.0
2018-Apr-20 17:00N 59°28' E 024°43'0 0.0
2018-Apr-20 16:30N 59°28' E 024°43'0 0.0
2018-Apr-20 16:00N 59°28' E 024°43'0 0.0
2018-Apr-20 15:30N 59°28' E 024°43'0 0.0
2018-Apr-20 15:00N 59°28' E 024°43'0 0.0
2018-Apr-20 14:30N 59°28' E 024°43'0 0.0
2018-Apr-20 14:00N 59°28' E 024°43'0 0.0
2018-Apr-20 13:30N 59°28' E 024°43'0 0.0
2018-Apr-20 12:59N 59°28' E 024°43'0 0.0
2018-Apr-20 12:29N 59°28' E 024°43'0 0.0
2018-Apr-20 11:59N 59°28' E 024°43'0 0.0
2018-Apr-20 11:29N 59°28' E 024°43'0 0.0
2018-Apr-20 10:59N 59°28' E 024°43'0 0.0
2018-Apr-20 10:29N 59°28' E 024°43'0 0.0
2018-Apr-20 09:59N 59°28' E 024°43'0 0.0
2018-Apr-20 09:29N 59°28' E 024°43'0 0.0
2018-Apr-20 08:59N 59°28' E 024°43'0 0.0
2018-Apr-20 08:29N 59°28' E 024°43'0 0.0
2018-Apr-20 07:59N 59°28' E 024°43'0 0.0
2018-Apr-20 07:29N 59°28' E 024°43'0 0.0
2018-Apr-20 06:59N 59°28' E 024°43'0 0.0
2018-Apr-20 06:29N 59°28' E 024°43'0 0.0
2018-Apr-20 05:59N 59°28' E 024°43'0 0.0
2018-Apr-20 05:29N 59°28' E 024°43'0 0.0
2018-Apr-20 04:59N 59°28' E 024°43'0 0.0
2018-Apr-20 04:29N 59°28' E 024°43'0 0.0
2018-Apr-20 03:59N 59°28' E 024°43'0 0.0
2018-Apr-20 03:29N 59°28' E 024°43'0 0.0
2018-Apr-20 02:59N 59°28' E 024°43'0 0.0
2018-Apr-20 02:29N 59°28' E 024°43'0 0.0
2018-Apr-20 01:59N 59°28' E 024°43'0 0.0
2018-Apr-20 01:29N 59°28' E 024°43'0 0.0
2018-Apr-20 00:59N 59°28' E 024°43'0 0.0
2018-Apr-20 00:29N 59°28' E 024°43'0 0.0
2018-Apr-19 23:59N 59°28' E 024°43'0 0.0
2018-Apr-19 23:29N 59°28' E 024°43'0 0.0
2018-Apr-19 22:59N 59°28' E 024°43'0 0.0
2018-Apr-19 22:29N 59°28' E 024°43'0 0.0
2018-Apr-19 22:00N 59°28' E 024°43'0 0.0
2018-Apr-19 21:29N 59°28' E 024°43'0 0.0
2018-Apr-19 21:00N 59°28' E 024°43'0 0.0
2018-Apr-19 20:29N 59°28' E 024°43'0 0.0
2018-Apr-19 19:59N 59°28' E 024°43'0 0.0
2018-Apr-19 19:29N 59°28' E 024°43'0 0.0
2018-Apr-19 18:59N 59°28' E 024°43'0 0.0
2018-Apr-19 18:29N 59°28' E 024°43'0 0.0
2018-Apr-19 18:00N 59°28' E 024°43'0 0.0
2018-Apr-19 17:29N 59°28' E 024°43'0 0.0
2018-Apr-19 16:59N 59°28' E 024°43'0 0.0
2018-Apr-19 16:29N 59°28' E 024°43'0 0.0
2018-Apr-19 15:59N 59°28' E 024°43'0 0.0
2018-Apr-19 15:29N 59°28' E 024°43'0 0.0
2018-Apr-19 14:59N 59°28' E 024°43'0 0.0
2018-Apr-19 14:30N 59°28' E 024°43'0 0.0
2018-Apr-19 13:59N 59°28' E 024°43'0 0.0
2018-Apr-19 13:29N 59°28' E 024°43'0 0.0
2018-Apr-19 12:59N 59°28' E 024°43'0 0.0
2018-Apr-19 12:29N 59°28' E 024°43'0 0.0
2018-Apr-19 11:59N 59°28' E 024°43'0 0.0
2018-Apr-19 11:29N 59°28' E 024°43'0 0.0
2018-Apr-19 10:59N 59°28' E 024°43'0 0.0
2018-Apr-19 10:26N 59°28' E 024°43'0 0.0
2018-Apr-19 09:59N 59°28' E 024°43'0 0.0
2018-Apr-19 09:29N 59°28' E 024°43'0 0.0
2018-Apr-19 09:00N 59°28' E 024°43'0 0.0
2018-Apr-19 08:29N 59°28' E 024°43'0 0.0
2018-Apr-19 08:00N 59°28' E 024°43'0 0.0
2018-Apr-19 07:29N 59°28' E 024°43'0 0.0
2018-Apr-19 06:59N 59°28' E 024°43'0 0.0
2018-Apr-19 06:29N 59°28' E 024°43'0 0.0
2018-Apr-19 06:00N 59°28' E 024°43'0 0.0
2018-Apr-19 05:29N 59°28' E 024°43'0 0.0
2018-Apr-19 04:59N 59°28' E 024°43'0 0.0
2018-Apr-19 04:29N 59°28' E 024°43'0 0.0
2018-Apr-19 03:59N 59°28' E 024°43'0 0.0
2018-Apr-19 03:23N 59°28' E 024°43'0 0.0
2018-Apr-19 02:59N 59°28' E 024°43'0 0.0
2018-Apr-19 02:29N 59°28' E 024°43'0 0.0
2018-Apr-19 01:59N 59°28' E 024°43'0 0.0
2018-Apr-19 01:29N 59°28' E 024°43'0 0.0
2018-Apr-19 00:59N 59°28' E 024°43'0 0.0
2018-Apr-19 00:29N 59°28' E 024°43'0 0.0
2018-Apr-18 23:59N 59°28' E 024°43'0 0.0
2018-Apr-18 23:29N 59°28' E 024°43'0 0.0
2018-Apr-18 23:00N 59°28' E 024°43'0 0.0
2018-Apr-18 22:29N 59°28' E 024°43'0 0.0
2018-Apr-18 21:59N 59°28' E 024°43'0 0.0
2018-Apr-18 21:29N 59°28' E 024°43'0 0.0
2018-Apr-18 20:59N 59°28' E 024°43'0 0.0
2018-Apr-18 20:29N 59°28' E 024°43'0 0.0
2018-Apr-18 19:59N 59°28' E 024°43'0 0.0
2018-Apr-18 19:29N 59°28' E 024°43'0 0.0
2018-Apr-18 18:59N 59°28' E 024°43'0 0.0
2018-Apr-18 18:29N 59°28' E 024°43'0 0.0
2018-Apr-18 17:59N 59°28' E 024°43'0 0.0
2018-Apr-18 17:29N 59°28' E 024°43'0 0.0
2018-Apr-18 16:59N 59°28' E 024°43'0 0.0
2018-Apr-18 16:29N 59°28' E 024°43'0 0.0
2018-Apr-18 15:59N 59°28' E 024°43'0 0.0
2018-Apr-18 15:29N 59°28' E 024°43'0 0.0
2018-Apr-18 14:59N 59°28' E 024°43'0 0.0
2018-Apr-18 14:29N 59°28' E 024°43'0 0.0
2018-Apr-18 13:59N 59°28' E 024°43'0 0.0
2018-Apr-18 13:29N 59°28' E 024°43'0 0.0
2018-Apr-18 12:59N 59°28' E 024°43'0 0.0
2018-Apr-18 12:30N 59°28' E 024°43'0 0.0
2018-Apr-18 12:00N 59°28' E 024°43'0 0.0
2018-Apr-18 11:29N 59°28' E 024°43'0 0.0
2018-Apr-18 10:59N 59°28' E 024°43'0 0.0
2018-Apr-18 10:30N 59°28' E 024°43'0 0.0
2018-Apr-18 09:59N 59°28' E 024°43'0 0.0
2018-Apr-18 09:29N 59°28' E 024°43'0 0.0
2018-Apr-18 08:59N 59°28' E 024°43'0 0.0
2018-Apr-18 08:29N 59°28' E 024°43'0 0.0
2018-Apr-18 07:59N 59°28' E 024°43'1 2.0
2018-Apr-18 07:30N 59°28' E 024°45'1 2.0
2018-Apr-18 06:58N 59°27' E 024°43'0 0.0
2018-Apr-18 06:28N 59°27' E 024°43'0 0.0
2018-Apr-18 05:58N 59°27' E 024°43'0 0.0
2018-Apr-18 05:28N 59°27' E 024°43'0 0.0
2018-Apr-18 04:58N 59°27' E 024°43'0 0.0
2018-Apr-18 04:28N 59°27' E 024°43'0 0.0
2018-Apr-18 03:58N 59°27' E 024°43'0 0.0
2018-Apr-18 03:28N 59°27' E 024°43'0 0.0
2018-Apr-18 02:58N 59°27' E 024°43'0 0.0
2018-Apr-18 02:28N 59°27' E 024°43'0 0.0
2018-Apr-18 01:58N 59°27' E 024°43'0 0.0
2018-Apr-18 01:23N 59°27' E 024°43'0 0.0
2018-Apr-18 00:59N 59°27' E 024°43'0 0.0
2018-Apr-18 00:29N 59°27' E 024°43'0 0.0
2018-Apr-17 23:59N 59°27' E 024°43'0 0.0
2018-Apr-17 23:29N 59°27' E 024°43'0 0.0
2018-Apr-17 22:59N 59°27' E 024°43'0 0.0
2018-Apr-17 22:29N 59°27' E 024°43'0 0.0
2018-Apr-17 21:59N 59°27' E 024°43'0 0.0
2018-Apr-17 21:29N 59°27' E 024°43'0 0.0
2018-Apr-17 20:59N 59°27' E 024°43'0 0.0
2018-Apr-17 20:29N 59°27' E 024°43'0 0.0
2018-Apr-17 19:59N 59°27' E 024°43'0 0.0
2018-Apr-17 19:29N 59°27' E 024°43'0 0.0
2018-Apr-17 18:59N 59°27' E 024°43'0 0.0
2018-Apr-17 18:29N 59°27' E 024°43'0 0.0
2018-Apr-17 17:59N 59°27' E 024°43'0 0.0
2018-Apr-17 17:29N 59°27' E 024°43'0 0.0
2018-Apr-17 16:59N 59°27' E 024°43'0 0.0
2018-Apr-17 16:29N 59°27' E 024°43'0 0.0
2018-Apr-17 15:59N 59°27' E 024°43'0 0.0
2018-Apr-17 15:29N 59°27' E 024°43'0 0.0
2018-Apr-17 14:59N 59°27' E 024°43'0 0.0
2018-Apr-17 14:29N 59°27' E 024°43'0 0.0
2018-Apr-17 13:59N 59°27' E 024°43'0 0.0
2018-Apr-17 13:29N 59°27' E 024°43'0 0.0
2018-Apr-17 12:59N 59°27' E 024°43'0 0.0
2018-Apr-17 12:26N 59°27' E 024°43'0 0.0
2018-Apr-17 11:59N 59°27' E 024°43'0 0.0
2018-Apr-17 11:29N 59°27' E 024°43'0 0.0
2018-Apr-17 10:59N 59°27' E 024°43'0 0.0
2018-Apr-17 10:29N 59°27' E 024°43'0 0.0
2018-Apr-17 09:59N 59°27' E 024°43'0 0.0
2018-Apr-17 09:29N 59°27' E 024°43'0 0.0
2018-Apr-17 08:59N 59°27' E 024°43'0 0.0
2018-Apr-17 08:29N 59°27' E 024°43'0 0.0
2018-Apr-17 07:59N 59°27' E 024°43'0 0.0
2018-Apr-17 07:29N 59°27' E 024°43'0 0.0
2018-Apr-17 06:59N 59°27' E 024°43'0 0.0
2018-Apr-17 06:29N 59°27' E 024°43'0 0.0
2018-Apr-17 05:59N 59°27' E 024°43'0 0.0
2018-Apr-17 05:29N 59°27' E 024°43'0 0.0
2018-Apr-17 04:59N 59°27' E 024°43'  
Track history (hours):
 
Tides and Currents Weather Stations Pressure Air Temp Water Temp Dewpoint Dewpoint Depression Visibility Wind Speed Wind Dir Waves Ship Positions

Eva-320

Last reported at 2018-Apr-27 04:59 UTC. Time now 2018-Apr-27 05:02 UTC.
Position N 59°28' E 024°43'.

Length 20 m; draft 1 m.

Type: Ship. MMSI: 276197000.

Date/timePositionNaut miles runAvg speedWind from/ knotsBaromVisibWave heightAir tempDewpointWater temp
2018-Apr-27 04:59N 59°28' E 024°43'0 0.0
2018-Apr-27 04:29N 59°28' E 024°43'0 0.0
2018-Apr-27 03:59N 59°28' E 024°43'0 0.0
2018-Apr-27 03:29N 59°28' E 024°43'0 0.0
2018-Apr-27 02:59N 59°28' E 024°43'0 0.0
2018-Apr-27 02:29N 59°28' E 024°43'0 0.0
2018-Apr-27 01:59N 59°28' E 024°43'0 0.0
2018-Apr-27 01:29N 59°28' E 024°43'0 0.0
2018-Apr-27 00:59N 59°28' E 024°43'0 0.0
2018-Apr-27 00:29N 59°28' E 024°43'0 0.0
2018-Apr-26 23:59N 59°28' E 024°43'0 0.0
2018-Apr-26 23:29N 59°28' E 024°43'0 0.0
2018-Apr-26 22:59N 59°28' E 024°43'0 0.0
2018-Apr-26 22:29N 59°28' E 024°43'0 0.0
2018-Apr-26 21:59N 59°28' E 024°43'0 0.0
2018-Apr-26 21:29N 59°28' E 024°43'0 0.0
2018-Apr-26 20:59N 59°28' E 024°43'0 0.0
2018-Apr-26 20:29N 59°28' E 024°43'0 0.0
2018-Apr-26 19:56N 59°28' E 024°43'0 0.0
2018-Apr-26 19:29N 59°28' E 024°43'0 0.0
2018-Apr-26 18:59N 59°28' E 024°43'0 0.0
2018-Apr-26 18:29N 59°28' E 024°43'0 0.0
2018-Apr-26 17:59N 59°28' E 024°43'0 0.0
2018-Apr-26 17:29N 59°28' E 024°43'0 0.0
2018-Apr-26 16:59N 59°28' E 024°43'0 0.0
2018-Apr-26 16:29N 59°28' E 024°43'0 0.0
2018-Apr-26 15:59N 59°28' E 024°43'0 0.0
2018-Apr-26 15:29N 59°28' E 024°43'0 0.0
2018-Apr-26 14:59N 59°28' E 024°43'0 0.0
2018-Apr-26 14:29N 59°28' E 024°43'0 0.0
2018-Apr-26 13:59N 59°28' E 024°43'0 0.1
2018-Apr-26 13:30N 59°28' E 024°43'2 4.4
2018-Apr-26 13:01N 59°30' E 024°43'5 9.2
2018-Apr-26 12:30N 59°30' E 024°34'3 5.7
2018-Apr-26 12:01N 59°31' E 024°28'2 3.3
2018-Apr-26 11:30N 59°30' E 024°31'3 5.7
2018-Apr-26 11:00N 59°29' E 024°26'4 6.7
2018-Apr-26 10:25N 59°29' E 024°18'1 2.2
2018-Apr-26 10:01N 59°29' E 024°20'1 1.2
2018-Apr-26 09:20N 59°29' E 024°18'2 4.8
2018-Apr-26 09:00N 59°29' E 024°21'4 7.4
2018-Apr-26 08:31N 59°29' E 024°28'4 7.4
2018-Apr-26 08:00N 59°30' E 024°36'4 7.3
2018-Apr-26 07:30N 59°30' E 024°43'2 4.5
2018-Apr-26 07:00N 59°28' E 024°43'0 0.0
2018-Apr-26 06:29N 59°28' E 024°43'0 0.0
2018-Apr-26 05:59N 59°28' E 024°43'0 0.0
2018-Apr-26 05:29N 59°28' E 024°43'0 0.0
2018-Apr-26 04:59N 59°28' E 024°43'0 0.0
2018-Apr-26 04:29N 59°28' E 024°43'0 0.0
2018-Apr-26 03:59N 59°28' E 024°43'0 0.0
2018-Apr-26 03:29N 59°28' E 024°43'0 0.0
2018-Apr-26 02:59N 59°28' E 024°43'0 0.0
2018-Apr-26 02:29N 59°28' E 024°43'0 0.0
2018-Apr-26 01:59N 59°28' E 024°43'0 0.0
2018-Apr-26 01:29N 59°28' E 024°43'0 0.0
2018-Apr-26 00:56N 59°28' E 024°43'0 0.0
2018-Apr-26 00:29N 59°28' E 024°43'0 0.0
2018-Apr-25 23:59N 59°28' E 024°43'0 0.0
2018-Apr-25 23:29N 59°28' E 024°43'0 0.0
2018-Apr-25 22:59N 59°28' E 024°43'0 0.0
2018-Apr-25 22:29N 59°28' E 024°43'0 0.0
2018-Apr-25 21:59N 59°28' E 024°43'0 0.0
2018-Apr-25 21:29N 59°28' E 024°43'0 0.0
2018-Apr-25 20:59N 59°28' E 024°43'0 0.0
2018-Apr-25 20:29N 59°28' E 024°43'0 0.0
2018-Apr-25 19:59N 59°28' E 024°43'0 0.0
2018-Apr-25 19:29N 59°28' E 024°43'0 0.0
2018-Apr-25 18:59N 59°28' E 024°43'0 0.0
2018-Apr-25 18:26N 59°28' E 024°43'0 0.0
2018-Apr-25 17:56N 59°28' E 024°43'0 0.0
2018-Apr-25 17:29N 59°28' E 024°43'0 0.0
2018-Apr-25 16:59N 59°28' E 024°43'0 0.0
2018-Apr-25 16:29N 59°28' E 024°43'0 0.0
2018-Apr-25 15:56N 59°28' E 024°43'0 0.0
2018-Apr-25 15:29N 59°28' E 024°43'0 0.0
2018-Apr-25 14:59N 59°28' E 024°43'0 0.0
2018-Apr-25 14:29N 59°28' E 024°43'0 0.0
2018-Apr-25 13:59N 59°28' E 024°43'0 0.0
2018-Apr-25 13:29N 59°28' E 024°43'0 0.0
2018-Apr-25 12:59N 59°28' E 024°43'0 0.0
2018-Apr-25 12:29N 59°28' E 024°43'0 0.0
2018-Apr-25 11:59N 59°28' E 024°43'0 0.0
2018-Apr-25 11:29N 59°28' E 024°43'0 0.0
2018-Apr-25 10:59N 59°28' E 024°43'2 3.7
2018-Apr-25 10:31N 59°29' E 024°43'2 3.8
2018-Apr-25 10:01N 59°30' E 024°40'0 0.6
2018-Apr-25 09:31N 59°30' E 024°39'3 5.2
2018-Apr-25 09:00N 59°29' E 024°44'0 0.6
2018-Apr-25 08:31N 59°29' E 024°45'2 3.3
2018-Apr-25 08:01N 59°28' E 024°44'0 0.7
2018-Apr-25 07:29N 59°28' E 024°43'0 0.0
2018-Apr-25 06:59N 59°28' E 024°43'0 0.0
2018-Apr-25 06:29N 59°28' E 024°43'0 0.0
2018-Apr-25 05:59N 59°28' E 024°43'0 0.0
2018-Apr-25 05:29N 59°28' E 024°43'0 0.0
2018-Apr-25 04:59N 59°28' E 024°43'0 0.0
2018-Apr-25 04:29N 59°28' E 024°43'0 0.0
2018-Apr-25 03:59N 59°28' E 024°43'0 0.0
2018-Apr-25 03:29N 59°28' E 024°43'0 0.0
2018-Apr-25 02:59N 59°28' E 024°43'0 0.0
2018-Apr-25 02:29N 59°28' E 024°43'0 0.0
2018-Apr-25 01:59N 59°28' E 024°43'0 0.0
2018-Apr-25 01:29N 59°28' E 024°43'0 0.0
2018-Apr-25 00:59N 59°28' E 024°43'0 0.0
2018-Apr-25 00:29N 59°28' E 024°43'0 0.0
2018-Apr-24 23:59N 59°28' E 024°43'0 0.0
2018-Apr-24 23:29N 59°28' E 024°43'0 0.0
2018-Apr-24 22:56N 59°28' E 024°43'0 0.0
2018-Apr-24 22:29N 59°28' E 024°43'0 0.0
2018-Apr-24 21:59N 59°28' E 024°43'0 0.0
2018-Apr-24 21:29N 59°28' E 024°43'0 0.0
2018-Apr-24 20:59N 59°28' E 024°43'0 0.0
2018-Apr-24 20:29N 59°28' E 024°43'0 0.0
2018-Apr-24 19:59N 59°28' E 024°43'0 0.0
2018-Apr-24 19:29N 59°28' E 024°43'0 0.0
2018-Apr-24 18:59N 59°28' E 024°43'0 0.0
2018-Apr-24 18:29N 59°28' E 024°43'0 0.0
2018-Apr-24 17:59N 59°28' E 024°43'0 0.0
2018-Apr-24 17:26N 59°28' E 024°43'0 0.0
2018-Apr-24 16:59N 59°28' E 024°43'0 0.0
2018-Apr-24 16:29N 59°28' E 024°43'0 0.0
2018-Apr-24 15:59N 59°28' E 024°43'0 0.0
2018-Apr-24 15:26N 59°28' E 024°43'0 0.0
2018-Apr-24 14:59N 59°28' E 024°43'0 0.0
2018-Apr-24 14:26N 59°28' E 024°43'0 0.0
2018-Apr-24 14:00N 59°28' E 024°43'3 5.4
2018-Apr-24 13:30N 59°30' E 024°42'3 6.9
2018-Apr-24 13:00N 59°30' E 024°36'0 0.2
2018-Apr-24 12:30N 59°30' E 024°35'0 0.3
2018-Apr-24 12:01N 59°30' E 024°36'1 2.3
2018-Apr-24 11:31N 59°30' E 024°38'0 0.5
2018-Apr-24 11:00N 59°30' E 024°38'1 1.7
2018-Apr-24 10:30N 59°29' E 024°37'3 6.1
2018-Apr-24 10:01N 59°30' E 024°43'2 4.7
2018-Apr-24 09:30N 59°28' E 024°43'0 0.0
2018-Apr-24 09:00N 59°28' E 024°43'0 0.0
2018-Apr-24 08:30N 59°28' E 024°43'0 0.0
2018-Apr-24 08:00N 59°28' E 024°43'0 0.0
2018-Apr-24 07:30N 59°28' E 024°43'0 0.0
2018-Apr-24 07:00N 59°28' E 024°43'0 0.0
2018-Apr-24 06:30N 59°28' E 024°43'0 0.0
2018-Apr-24 06:00N 59°28' E 024°43'0 0.0
2018-Apr-24 05:30N 59°28' E 024°43'0 0.0
2018-Apr-24 05:00N 59°28' E 024°43'0 0.0
2018-Apr-24 04:30N 59°28' E 024°43'0 0.0
2018-Apr-24 04:00N 59°28' E 024°43'0 0.0
2018-Apr-24 03:30N 59°28' E 024°43'0 0.0
2018-Apr-24 03:00N 59°28' E 024°43'0 0.0
2018-Apr-24 02:30N 59°28' E 024°43'0 0.0
2018-Apr-24 02:00N 59°28' E 024°43'0 0.0
2018-Apr-24 01:30N 59°28' E 024°43'0 0.0
2018-Apr-24 01:00N 59°28' E 024°43'0 0.0
2018-Apr-24 00:30N 59°28' E 024°43'0 0.0
2018-Apr-24 00:00N 59°28' E 024°43'0 0.0
2018-Apr-23 23:30N 59°28' E 024°43'0 0.0
2018-Apr-23 23:00N 59°28' E 024°43'0 0.0
2018-Apr-23 22:30N 59°28' E 024°43'0 0.0
2018-Apr-23 22:00N 59°28' E 024°43'0 0.0
2018-Apr-23 21:30N 59°28' E 024°43'0 0.0
2018-Apr-23 21:00N 59°28' E 024°43'0 0.0
2018-Apr-23 20:30N 59°28' E 024°43'0 0.0
2018-Apr-23 20:00N 59°28' E 024°43'0 0.0
2018-Apr-23 19:30N 59°28' E 024°43'0 0.0
2018-Apr-23 19:00N 59°28' E 024°43'0 0.0
2018-Apr-23 18:30N 59°28' E 024°43'0 0.0
2018-Apr-23 18:00N 59°28' E 024°43'0 0.0
2018-Apr-23 17:30N 59°28' E 024°43'0 0.0
2018-Apr-23 17:00N 59°28' E 024°43'0 0.0
2018-Apr-23 16:30N 59°28' E 024°43'0 0.0
2018-Apr-23 16:00N 59°28' E 024°43'0 0.0
2018-Apr-23 15:30N 59°28' E 024°43'0 0.0
2018-Apr-23 15:00N 59°28' E 024°43'0 0.0
2018-Apr-23 14:30N 59°28' E 024°43'0 0.0
2018-Apr-23 14:00N 59°28' E 024°43'0 0.0
2018-Apr-23 13:30N 59°28' E 024°43'0 0.0
2018-Apr-23 13:00N 59°28' E 024°43'0 0.0
2018-Apr-23 12:30N 59°28' E 024°43'0 0.0
2018-Apr-23 12:00N 59°28' E 024°43'0 0.0
2018-Apr-23 11:30N 59°28' E 024°43'0 0.0
2018-Apr-23 11:00N 59°28' E 024°43'0 0.0
2018-Apr-23 10:30N 59°28' E 024°43'0 0.0
2018-Apr-23 10:00N 59°28' E 024°43'0 0.0
2018-Apr-23 09:30N 59°28' E 024°43'0 0.0
2018-Apr-23 09:00N 59°28' E 024°43'0 0.0
2018-Apr-23 08:30N 59°28' E 024°43'0 0.0
2018-Apr-23 08:00N 59°28' E 024°43'0 0.0
2018-Apr-23 07:30N 59°28' E 024°43'0 0.0
2018-Apr-23 07:00N 59°28' E 024°43'0 0.0
2018-Apr-23 06:30N 59°28' E 024°43'0 0.0
2018-Apr-23 06:00N 59°28' E 024°43'0 0.0
2018-Apr-23 05:30N 59°28' E 024°43'0 0.0
2018-Apr-23 05:00N 59°28' E 024°43'0 0.0
2018-Apr-23 04:30N 59°28' E 024°43'0 0.0
2018-Apr-23 04:00N 59°28' E 024°43'0 0.0
2018-Apr-23 03:30N 59°28' E 024°43'0 0.0
2018-Apr-23 03:00N 59°28' E 024°43'0 0.0
2018-Apr-23 02:30N 59°28' E 024°43'0 0.0
2018-Apr-23 02:00N 59°28' E 024°43'0 0.0
2018-Apr-23 01:30N 59°28' E 024°43'0 0.0
2018-Apr-23 01:00N 59°28' E 024°43'0 0.0
2018-Apr-23 00:30N 59°28' E 024°43'0 0.0
2018-Apr-23 00:00N 59°28' E 024°43'0 0.0
2018-Apr-22 23:30N 59°28' E 024°43'0 0.0
2018-Apr-22 23:00N 59°28' E 024°43'0 0.0
2018-Apr-22 22:30N 59°28' E 024°43'0 0.0
2018-Apr-22 22:00N 59°28' E 024°43'0 0.0
2018-Apr-22 21:30N 59°28' E 024°43'0 0.0
2018-Apr-22 21:00N 59°28' E 024°43'0 0.0
2018-Apr-22 20:30N 59°28' E 024°43'0 0.0
2018-Apr-22 20:00N 59°28' E 024°43'0 0.0
2018-Apr-22 19:30N 59°28' E 024°43'0 0.0
2018-Apr-22 19:00N 59°28' E 024°43'0 0.0
2018-Apr-22 18:30N 59°28' E 024°43'0 0.0
2018-Apr-22 18:00N 59°28' E 024°43'0 0.0
2018-Apr-22 17:30N 59°28' E 024°43'0 0.0
2018-Apr-22 17:00N 59°28' E 024°43'0 0.0
2018-Apr-22 16:30N 59°28' E 024°43'0 0.0
2018-Apr-22 16:00N 59°28' E 024°43'0 0.0
2018-Apr-22 15:30N 59°28' E 024°43'0 0.0
2018-Apr-22 15:00N 59°28' E 024°43'0 0.0
2018-Apr-22 14:30N 59°28' E 024°43'0 0.0
2018-Apr-22 14:00N 59°28' E 024°43'0 0.0
2018-Apr-22 13:30N 59°28' E 024°43'0 0.0
2018-Apr-22 13:00N 59°28' E 024°43'0 0.0
2018-Apr-22 12:30N 59°28' E 024°43'0 0.0
2018-Apr-22 11:54N 59°28' E 024°43'0 0.0
2018-Apr-22 11:30N 59°28' E 024°43'0 0.0
2018-Apr-22 11:00N 59°28' E 024°43'0 0.0
2018-Apr-22 10:30N 59°28' E 024°43'0 0.0
2018-Apr-22 10:00N 59°28' E 024°43'0 0.0
2018-Apr-22 09:30N 59°28' E 024°43'0 0.0
2018-Apr-22 09:00N 59°28' E 024°43'0 0.0
2018-Apr-22 08:30N 59°28' E 024°43'0 0.0
2018-Apr-22 08:00N 59°28' E 024°43'0 0.0
2018-Apr-22 07:30N 59°28' E 024°43'0 0.0
2018-Apr-22 07:00N 59°28' E 024°43'0 0.0
2018-Apr-22 06:30N 59°28' E 024°43'0 0.0
2018-Apr-22 06:00N 59°28' E 024°43'0 0.0
2018-Apr-22 05:30N 59°28' E 024°43'0 0.0
2018-Apr-22 04:57N 59°28' E 024°43'0 0.0
2018-Apr-22 04:29N 59°28' E 024°43'0 0.0
2018-Apr-22 04:00N 59°28' E 024°43'0 0.0
2018-Apr-22 03:30N 59°28' E 024°43'0 0.0
2018-Apr-22 03:00N 59°28' E 024°43'0 0.0
2018-Apr-22 02:30N 59°28' E 024°43'0 0.0
2018-Apr-22 02:00N 59°28' E 024°43'0 0.0
2018-Apr-22 01:30N 59°28' E 024°43'0 0.0
2018-Apr-22 01:00N 59°28' E 024°43'0 0.0
2018-Apr-22 00:30N 59°28' E 024°43'0 0.0
2018-Apr-22 00:00N 59°28' E 024°43'0 0.0
2018-Apr-21 23:30N 59°28' E 024°43'0 0.0
2018-Apr-21 23:00N 59°28' E 024°43'0 0.0
2018-Apr-21 22:27N 59°28' E 024°43'0 0.0
2018-Apr-21 22:00N 59°28' E 024°43'0 0.0
2018-Apr-21 21:30N 59°28' E 024°43'0 0.0
2018-Apr-21 21:00N 59°28' E 024°43'0 0.0
2018-Apr-21 20:30N 59°28' E 024°43'0 0.0
2018-Apr-21 20:00N 59°28' E 024°43'0 0.0
2018-Apr-21 19:30N 59°28' E 024°43'0 0.0
2018-Apr-21 19:00N 59°28' E 024°43'0 0.0
2018-Apr-21 18:30N 59°28' E 024°43'0 0.0
2018-Apr-21 18:00N 59°28' E 024°43'0 0.0
2018-Apr-21 17:30N 59°28' E 024°43'0 0.0
2018-Apr-21 17:00N 59°28' E 024°43'0 0.0
2018-Apr-21 16:30N 59°28' E 024°43'0 0.0
2018-Apr-21 16:00N 59°28' E 024°43'0 0.0
2018-Apr-21 15:30N 59°28' E 024°43'0 0.0
2018-Apr-21 14:57N 59°28' E 024°43'0 0.0
2018-Apr-21 14:30N 59°28' E 024°43'0 0.0
2018-Apr-21 14:00N 59°28' E 024°43'0 0.0
2018-Apr-21 13:30N 59°28' E 024°43'0 0.0
2018-Apr-21 13:00N 59°28' E 024°43'0 0.0
2018-Apr-21 12:30N 59°28' E 024°43'0 0.0
2018-Apr-21 12:00N 59°28' E 024°43'0 0.0
2018-Apr-21 11:30N 59°28' E 024°43'0 0.0
2018-Apr-21 11:00N 59°28' E 024°43'0 0.0
2018-Apr-21 10:30N 59°28' E 024°43'0 0.0
2018-Apr-21 10:00N 59°28' E 024°43'0 0.0
2018-Apr-21 09:30N 59°28' E 024°43'0 0.0
2018-Apr-21 09:00N 59°28' E 024°43'0 0.0
2018-Apr-21 08:30N 59°28' E 024°43'0 0.0
2018-Apr-21 08:00N 59°28' E 024°43'0 0.0
2018-Apr-21 07:30N 59°28' E 024°43'0 0.0
2018-Apr-21 07:00N 59°28' E 024°43'0 0.0
2018-Apr-21 06:30N 59°28' E 024°43'0 0.0
2018-Apr-21 06:00N 59°28' E 024°43'0 0.0
2018-Apr-21 05:30N 59°28' E 024°43'0 0.0
2018-Apr-21 05:00N 59°28' E 024°43'0 0.0
2018-Apr-21 04:30N 59°28' E 024°43'0 0.0
2018-Apr-21 04:00N 59°28' E 024°43'0 0.0
2018-Apr-21 03:30N 59°28' E 024°43'0 0.0
2018-Apr-21 03:00N 59°28' E 024°43'0 0.0
2018-Apr-21 02:30N 59°28' E 024°43'0 0.0
2018-Apr-21 02:00N 59°28' E 024°43'0 0.0
2018-Apr-21 01:30N 59°28' E 024°43'0 0.0
2018-Apr-21 01:00N 59°28' E 024°43'0 0.0
2018-Apr-21 00:30N 59°28' E 024°43'0 0.0
2018-Apr-21 00:00N 59°28' E 024°43'0 0.0
2018-Apr-20 23:30N 59°28' E 024°43'0 0.0
2018-Apr-20 23:00N 59°28' E 024°43'0 0.0
2018-Apr-20 22:30N 59°28' E 024°43'0 0.0
2018-Apr-20 22:00N 59°28' E 024°43'0 0.0
2018-Apr-20 21:30N 59°28' E 024°43'0 0.0
2018-Apr-20 21:00N 59°28' E 024°43'0 0.0
2018-Apr-20 20:30N 59°28' E 024°43'0 0.0
2018-Apr-20 20:00N 59°28' E 024°43'0 0.0
2018-Apr-20 19:30N 59°28' E 024°43'0 0.0
2018-Apr-20 19:00N 59°28' E 024°43'0 0.0
2018-Apr-20 18:30N 59°28' E 024°43'0 0.0
2018-Apr-20 17:57N 59°28' E 024°43'0 0.0
2018-Apr-20 17:30N 59°28' E 024°43'0 0.0
2018-Apr-20 17:00N 59°28' E 024°43'0 0.0
2018-Apr-20 16:30N 59°28' E 024°43'0 0.0
2018-Apr-20 16:00N 59°28' E 024°43'0 0.0
2018-Apr-20 15:30N 59°28' E 024°43'0 0.0
2018-Apr-20 15:00N 59°28' E 024°43'0 0.0
2018-Apr-20 14:30N 59°28' E 024°43'0 0.0
2018-Apr-20 14:00N 59°28' E 024°43'0 0.0
2018-Apr-20 13:30N 59°28' E 024°43'0 0.0
2018-Apr-20 12:59N 59°28' E 024°43'0 0.0
2018-Apr-20 12:29N 59°28' E 024°43'0 0.0
2018-Apr-20 11:59N 59°28' E 024°43'0 0.0
2018-Apr-20 11:29N 59°28' E 024°43'0 0.0
2018-Apr-20 10:59N 59°28' E 024°43'0 0.0
2018-Apr-20 10:29N 59°28' E 024°43'0 0.0
2018-Apr-20 09:59N 59°28' E 024°43'0 0.0
2018-Apr-20 09:29N 59°28' E 024°43'0 0.0
2018-Apr-20 08:59N 59°28' E 024°43'0 0.0
2018-Apr-20 08:29N 59°28' E 024°43'0 0.0
2018-Apr-20 07:59N 59°28' E 024°43'0 0.0
2018-Apr-20 07:29N 59°28' E 024°43'0 0.0
2018-Apr-20 06:59N 59°28' E 024°43'0 0.0
2018-Apr-20 06:29N 59°28' E 024°43'0 0.0
2018-Apr-20 05:59N 59°28' E 024°43'0 0.0
2018-Apr-20 05:29N 59°28' E 024°43'0 0.0
2018-Apr-20 04:59N 59°28' E 024°43'0 0.0
2018-Apr-20 04:29N 59°28' E 024°43'0 0.0
2018-Apr-20 03:59N 59°28' E 024°43'0 0.0
2018-Apr-20 03:29N 59°28' E 024°43'0 0.0
2018-Apr-20 02:59N 59°28' E 024°43'0 0.0
2018-Apr-20 02:29N 59°28' E 024°43'0 0.0
2018-Apr-20 01:59N 59°28' E 024°43'0 0.0
2018-Apr-20 01:29N 59°28' E 024°43'0 0.0
2018-Apr-20 00:59N 59°28' E 024°43'0 0.0
2018-Apr-20 00:29N 59°28' E 024°43'0 0.0
2018-Apr-19 23:59N 59°28' E 024°43'0 0.0
2018-Apr-19 23:29N 59°28' E 024°43'0 0.0
2018-Apr-19 22:59N 59°28' E 024°43'0 0.0
2018-Apr-19 22:29N 59°28' E 024°43'0 0.0
2018-Apr-19 22:00N 59°28' E 024°43'0 0.0
2018-Apr-19 21:29N 59°28' E 024°43'0 0.0
2018-Apr-19 21:00N 59°28' E 024°43'0 0.0
2018-Apr-19 20:29N 59°28' E 024°43'0 0.0
2018-Apr-19 19:59N 59°28' E 024°43'0 0.0
2018-Apr-19 19:29N 59°28' E 024°43'0 0.0
2018-Apr-19 18:59N 59°28' E 024°43'0 0.0
2018-Apr-19 18:29N 59°28' E 024°43'0 0.0
2018-Apr-19 18:00N 59°28' E 024°43'0 0.0
2018-Apr-19 17:29N 59°28' E 024°43'0 0.0
2018-Apr-19 16:59N 59°28' E 024°43'0 0.0
2018-Apr-19 16:29N 59°28' E 024°43'0 0.0
2018-Apr-19 15:59N 59°28' E 024°43'0 0.0
2018-Apr-19 15:29N 59°28' E 024°43'0 0.0
2018-Apr-19 14:59N 59°28' E 024°43'0 0.0
2018-Apr-19 14:30N 59°28' E 024°43'0 0.0
2018-Apr-19 13:59N 59°28' E 024°43'0 0.0
2018-Apr-19 13:29N 59°28' E 024°43'0 0.0
2018-Apr-19 12:59N 59°28' E 024°43'0 0.0
2018-Apr-19 12:29N 59°28' E 024°43'0 0.0
2018-Apr-19 11:59N 59°28' E 024°43'0 0.0
2018-Apr-19 11:29N 59°28' E 024°43'0 0.0
2018-Apr-19 10:59N 59°28' E 024°43'0 0.0
2018-Apr-19 10:26N 59°28' E 024°43'0 0.0
2018-Apr-19 09:59N 59°28' E 024°43'0 0.0
2018-Apr-19 09:29N 59°28' E 024°43'0 0.0
2018-Apr-19 09:00N 59°28' E 024°43'0 0.0
2018-Apr-19 08:29N 59°28' E 024°43'0 0.0
2018-Apr-19 08:00N 59°28' E 024°43'0 0.0
2018-Apr-19 07:29N 59°28' E 024°43'0 0.0
2018-Apr-19 06:59N 59°28' E 024°43'0 0.0
2018-Apr-19 06:29N 59°28' E 024°43'0 0.0
2018-Apr-19 06:00N 59°28' E 024°43'0 0.0
2018-Apr-19 05:29N 59°28' E 024°43'0 0.0
2018-Apr-19 04:59N 59°28' E 024°43'0 0.0
2018-Apr-19 04:29N 59°28' E 024°43'0 0.0
2018-Apr-19 03:59N 59°28' E 024°43'0 0.0
2018-Apr-19 03:23N 59°28' E 024°43'0 0.0
2018-Apr-19 02:59N 59°28' E 024°43'0 0.0
2018-Apr-19 02:29N 59°28' E 024°43'0 0.0
2018-Apr-19 01:59N 59°28' E 024°43'0 0.0
2018-Apr-19 01:29N 59°28' E 024°43'0 0.0
2018-Apr-19 00:59N 59°28' E 024°43'0 0.0
2018-Apr-19 00:29N 59°28' E 024°43'0 0.0
2018-Apr-18 23:59N 59°28' E 024°43'0 0.0
2018-Apr-18 23:29N 59°28' E 024°43'0 0.0
2018-Apr-18 23:00N 59°28' E 024°43'0 0.0
2018-Apr-18 22:29N 59°28' E 024°43'0 0.0
2018-Apr-18 21:59N 59°28' E 024°43'0 0.0
2018-Apr-18 21:29N 59°28' E 024°43'0 0.0
2018-Apr-18 20:59N 59°28' E 024°43'0 0.0
2018-Apr-18 20:29N 59°28' E 024°43'0 0.0
2018-Apr-18 19:59N 59°28' E 024°43'0 0.0
2018-Apr-18 19:29N 59°28' E 024°43'0 0.0
2018-Apr-18 18:59N 59°28' E 024°43'0 0.0
2018-Apr-18 18:29N 59°28' E 024°43'0 0.0
2018-Apr-18 17:59N 59°28' E 024°43'0 0.0
2018-Apr-18 17:29N 59°28' E 024°43'0 0.0
2018-Apr-18 16:59N 59°28' E 024°43'0 0.0
2018-Apr-18 16:29N 59°28' E 024°43'0 0.0
2018-Apr-18 15:59N 59°28' E 024°43'0 0.0
2018-Apr-18 15:29N 59°28' E 024°43'0 0.0
2018-Apr-18 14:59N 59°28' E 024°43'0 0.0
2018-Apr-18 14:29N 59°28' E 024°43'0 0.0
2018-Apr-18 13:59N 59°28' E 024°43'0 0.0
2018-Apr-18 13:29N 59°28' E 024°43'0 0.0
2018-Apr-18 12:59N 59°28' E 024°43'0 0.0
2018-Apr-18 12:30N 59°28' E 024°43'0 0.0
2018-Apr-18 12:00N 59°28' E 024°43'0 0.0
2018-Apr-18 11:29N 59°28' E 024°43'0 0.0
2018-Apr-18 10:59N 59°28' E 024°43'0 0.0
2018-Apr-18 10:30N 59°28' E 024°43'0 0.0
2018-Apr-18 09:59N 59°28' E 024°43'0 0.0
2018-Apr-18 09:29N 59°28' E 024°43'0 0.0
2018-Apr-18 08:59N 59°28' E 024°43'0 0.0
2018-Apr-18 08:29N 59°28' E 024°43'0 0.0
2018-Apr-18 07:59N 59°28' E 024°43'1 2.0
2018-Apr-18 07:30N 59°28' E 024°45'1 2.0
2018-Apr-18 06:58N 59°27' E 024°43'0 0.0
2018-Apr-18 06:28N 59°27' E 024°43'0 0.0
2018-Apr-18 05:58N 59°27' E 024°43'0 0.0
2018-Apr-18 05:28N 59°27' E 024°43'0 0.0
2018-Apr-18 04:58N 59°27' E 024°43'0 0.0
2018-Apr-18 04:28N 59°27' E 024°43'0 0.0
2018-Apr-18 03:58N 59°27' E 024°43'0 0.0
2018-Apr-18 03:28N 59°27' E 024°43'0 0.0
2018-Apr-18 02:58N 59°27' E 024°43'0 0.0
2018-Apr-18 02:28N 59°27' E 024°43'0 0.0
2018-Apr-18 01:58N 59°27' E 024°43'0 0.0
2018-Apr-18 01:23N 59°27' E 024°43'0 0.0
2018-Apr-18 00:59N 59°27' E 024°43'0 0.0
2018-Apr-18 00:29N 59°27' E 024°43'0 0.0
2018-Apr-17 23:59N 59°27' E 024°43'0 0.0
2018-Apr-17 23:29N 59°27' E 024°43'0 0.0
2018-Apr-17 22:59N 59°27' E 024°43'0 0.0
2018-Apr-17 22:29N 59°27' E 024°43'0 0.0
2018-Apr-17 21:59N 59°27' E 024°43'0 0.0
2018-Apr-17 21:29N 59°27' E 024°43'0 0.0
2018-Apr-17 20:59N 59°27' E 024°43'0 0.0
2018-Apr-17 20:29N 59°27' E 024°43'0 0.0
2018-Apr-17 19:59N 59°27' E 024°43'0 0.0
2018-Apr-17 19:29N 59°27' E 024°43'0 0.0
2018-Apr-17 18:59N 59°27' E 024°43'0 0.0
2018-Apr-17 18:29N 59°27' E 024°43'0 0.0
2018-Apr-17 17:59N 59°27' E 024°43'0 0.0
2018-Apr-17 17:29N 59°27' E 024°43'0 0.0
2018-Apr-17 16:59N 59°27' E 024°43'0 0.0
2018-Apr-17 16:29N 59°27' E 024°43'0 0.0
2018-Apr-17 15:59N 59°27' E 024°43'0 0.0
2018-Apr-17 15:29N 59°27' E 024°43'0 0.0
2018-Apr-17 14:59N 59°27' E 024°43'0 0.0
2018-Apr-17 14:29N 59°27' E 024°43'0 0.0
2018-Apr-17 13:59N 59°27' E 024°43'0 0.0
2018-Apr-17 13:29N 59°27' E 024°43'0 0.0
2018-Apr-17 12:59N 59°27' E 024°43'0 0.0
2018-Apr-17 12:26N 59°27' E 024°43'0 0.0
2018-Apr-17 11:59N 59°27' E 024°43'0 0.0
2018-Apr-17 11:29N 59°27' E 024°43'0 0.0
2018-Apr-17 10:59N 59°27' E 024°43'0 0.0
2018-Apr-17 10:29N 59°27' E 024°43'0 0.0
2018-Apr-17 09:59N 59°27' E 024°43'0 0.0
2018-Apr-17 09:29N 59°27' E 024°43'0 0.0
2018-Apr-17 08:59N 59°27' E 024°43'0 0.0
2018-Apr-17 08:29N 59°27' E 024°43'0 0.0
2018-Apr-17 07:59N 59°27' E 024°43'0 0.0
2018-Apr-17 07:29N 59°27' E 024°43'0 0.0
2018-Apr-17 06:59N 59°27' E 024°43'0 0.0
2018-Apr-17 06:29N 59°27' E 024°43'0 0.0
2018-Apr-17 05:59N 59°27' E 024°43'0 0.0
2018-Apr-17 05:29N 59°27' E 024°43'0 0.0
2018-Apr-17 04:59N 59°27' E 024°43'  

Dump ship's entire track history